Time;durP1;ratioP1;P1;durP2;ratioP2;P2;SDS_P1;SDS_P2;PMS_P1;PMS_P2;Temp;Humidity;BMP_temperature;BMP_pressure;BME280_temperature;BME280_humidity;BME280_pressure;Samples;Min_cycle;Max_cycle;Signal;HPM_P1;HPM_P2
2022/04/30 00:00:37;;;;;;;8.73;4.87;;;10.90;91.30;;;;;;4958596;28;20034;-69
2022/04/30 00:03:03;;;;;;;10.93;4.87;;;10.90;91.40;;;;;;4975769;28;20027;-67
2022/04/30 00:05:31;;;;;;;7.97;4.60;;;10.90;91.50;;;;;;4975879;28;20031;-68
2022/04/30 00:07:57;;;;;;;7.17;4.57;;;10.90;91.40;;;;;;4975713;28;20030;-67
2022/04/30 00:10:23;;;;;;;10.53;4.90;;;10.90;91.40;;;;;;4975737;28;20039;-68
2022/04/30 00:12:50;;;;;;;7.33;4.13;;;10.90;91.40;;;;;;4975638;28;20039;-69
2022/04/30 00:15:16;;;;;;;9.20;4.50;;;10.90;91.30;;;;;;4975474;28;20480;-68
2022/04/30 00:17:42;;;;;;;9.00;4.47;;;10.90;91.40;;;;;;4975435;28;20059;-68
2022/04/30 00:20:09;;;;;;;8.80;4.50;;;10.90;91.30;;;;;;4975659;28;20495;-68
2022/04/30 00:22:35;;;;;;;7.93;4.53;;;10.90;91.30;;;;;;4975556;28;20023;-68
2022/04/30 00:25:01;;;;;;;9.30;4.70;;;10.90;91.20;;;;;;4975733;28;20467;-68
2022/04/30 00:27:28;;;;;;;9.27;4.33;;;10.80;91.30;;;;;;4958104;28;20039;-69
2022/04/30 00:29:54;;;;;;;10.00;4.30;;;10.80;91.30;;;;;;4975343;28;20042;-69
2022/04/30 00:32:22;;;;;;;8.33;4.00;;;10.90;91.50;;;;;;4975214;28;20046;-68
2022/04/30 00:34:48;;;;;;;7.83;3.90;;;10.90;91.40;;;;;;4975226;28;20035;-69
2022/04/30 00:37:14;;;;;;;8.63;4.50;;;10.90;91.20;;;;;;4975078;28;20035;-68
2022/04/30 00:39:40;;;;;;;7.70;4.03;;;10.90;91.30;;;;;;4975253;28;20054;-68
2022/04/30 00:42:11;;;;;;;9.00;4.30;;;10.80;91.30;;;;;;4975097;28;20400;-68
2022/04/30 00:44:38;;;;;;;5.80;3.80;;;10.80;91.30;;;;;;4975613;28;20043;-68
2022/04/30 00:47:04;;;;;;;6.43;4.10;;;10.80;91.40;;;;;;4974933;28;20113;-68
2022/04/30 00:49:30;;;;;;;8.80;4.43;;;10.80;91.40;;;;;;4975081;28;20411;-68
2022/04/30 00:52:01;;;;;;;8.47;4.57;;;10.70;91.40;;;;;;4975176;28;20046;-68
2022/04/30 00:54:32;;;;;;;10.77;4.37;;;10.70;91.60;;;;;;4974997;28;20041;-68
2022/04/30 00:57:01;;;;;;;7.37;3.90;;;10.70;91.50;;;;;;4974751;28;20034;-68
2022/04/30 00:59:27;;;;;;;;;;;10.60;91.50;;;;;;4975186;28;20038;-68
2022/04/30 01:01:59;;;;;;;9.37;4.30;;;10.60;91.60;;;;;;4974723;28;19957;-68
2022/04/30 01:04:59;;;;;;;7.00;3.70;;;10.60;91.70;;;;;;4921851;28;20513;-68
2022/04/30 01:07:26;;;;;;;5.50;3.70;;;10.60;91.80;;;;;;4974553;28;20030;-68
2022/04/30 01:09:56;;;;;;;6.30;4.00;;;10.60;91.80;;;;;;4974644;28;20086;-68
2022/04/30 01:12:23;;;;;;;5.97;3.90;;;10.60;91.70;;;;;;4974561;28;20035;-68
2022/04/30 01:14:52;;;;;;;8.90;4.17;;;10.60;91.70;;;;;;4974541;28;20113;-68
2022/04/30 01:17:19;;;;;;;;;;;10.60;91.70;;;;;;4974854;28;20511;-69
2022/04/30 01:19:47;;;;;;;7.37;3.77;;;10.50;91.70;;;;;;4974466;28;20394;-68
2022/04/30 01:22:45;;;;;;;9.67;4.60;;;10.50;91.70;;;;;;4974387;28;20122;-68
2022/04/30 01:25:13;;;;;;;8.83;4.00;;;10.50;91.70;;;;;;4957095;28;20042;-68
2022/04/30 01:27:41;;;;;;;7.03;3.87;;;10.50;91.80;;;;;;4974104;28;20039;-68
2022/04/30 01:30:08;;;;;;;6.10;3.90;;;10.50;91.70;;;;;;4974426;28;20035;-68
2022/04/30 01:38:06;;;;;;;7.43;3.97;;;10.40;92.00;;;;;;4956598;28;20117;-68
2022/04/30 01:40:33;;;;;;;7.07;3.30;;;10.40;92.00;;;;;;4974174;28;20027;-68
2022/04/30 01:43:01;;;;;;;7.37;4.00;;;10.40;92.00;;;;;;4974075;28;20395;-68
2022/04/30 01:45:28;;;;;;;6.23;3.50;;;10.30;92.10;;;;;;4974105;28;20035;-68
2022/04/30 01:47:56;;;;;;;10.27;3.93;;;10.30;92.30;;;;;;4956606;28;20612;-68
2022/04/30 01:50:23;;;;;;;7.03;3.67;;;10.30;92.30;;;;;;4974060;28;20035;-68
2022/04/30 01:52:50;;;;;;;7.43;3.80;;;10.30;92.30;;;;;;4973909;28;20043;-68
2022/04/30 01:55:16;;;;;;;5.30;3.50;;;10.20;92.40;;;;;;4973855;28;20046;-68
2022/04/30 01:57:43;;;;;;;7.07;3.90;;;10.20;92.40;;;;;;4956132;28;20058;-68
2022/04/30 02:00:12;;;;;;;6.40;3.63;;;10.10;92.40;;;;;;4973876;28;20065;-68
2022/04/30 02:02:45;;;;;;;8.93;3.87;;;10.20;92.50;;;;;;4973654;28;20023;-68
2022/04/30 02:05:13;;;;;;;8.60;3.70;;;10.10;92.80;;;;;;4973614;28;20039;-68
2022/04/30 02:08:07;;;;;;;6.37;4.00;;;10.10;92.70;;;;;;4973747;28;20050;-68
2022/04/30 02:10:39;;;;;;;5.77;3.70;;;10.10;92.70;;;;;;4973614;28;20114;-68
2022/04/30 02:13:09;;;;;;;6.07;3.23;;;10.10;92.70;;;;;;4972875;28;20027;-68
2022/04/30 02:15:41;;;;;;;7.57;4.10;;;10.10;92.80;;;;;;4973450;28;20090;-68
2022/04/30 02:18:13;;;;;;;7.13;4.00;;;10.00;92.90;;;;;;4973305;28;20034;-68
2022/04/30 02:20:43;;;;;;;9.80;4.20;;;10.00;93.00;;;;;;4973348;28;20391;-68
2022/04/30 02:23:10;;;;;;;7.00;3.80;;;9.80;93.20;;;;;;4973123;28;20517;-68
2022/04/30 02:25:37;;;;;;;10.03;4.47;;;9.90;93.30;;;;;;4973200;28;20043;-68
2022/04/30 02:28:08;;;;;;;7.30;4.10;;;9.80;93.30;;;;;;4972839;28;20031;-68
2022/04/30 02:30:36;;;;;;;7.90;4.83;;;9.70;93.50;;;;;;4973087;28;20109;-68
2022/04/30 02:33:12;;;;;;;9.90;4.63;;;9.70;93.70;;;;;;4972876;28;20034;-68
2022/04/30 02:35:43;;;;;;;9.13;4.13;;;9.70;93.60;;;;;;4973116;28;20178;-68
2022/04/30 02:38:10;;;;;;;11.97;4.97;;;9.70;93.70;;;;;;4955487;28;20035;-68
2022/04/30 02:40:38;;;;;;;9.80;4.60;;;9.60;93.80;;;;;;4955662;28;20114;-68
2022/04/30 02:43:08;;;;;;;12.40;4.70;;;9.50;93.90;;;;;;4972764;28;20061;-68
2022/04/30 02:45:35;;;;;;;7.20;4.60;;;9.60;94.00;;;;;;4972845;28;20031;-68
2022/04/30 02:48:03;;;;;;;8.67;5.03;;;9.50;93.90;;;;;;4972670;28;20027;-68
2022/04/30 02:50:29;;;;;;;8.00;4.70;;;9.50;93.90;;;;;;4972786;28;20026;-68
2022/04/30 02:52:55;;;;;;;8.73;4.43;;;9.60;94.10;;;;;;4972738;28;20519;-68
2022/04/30 02:55:24;;;;;;;8.63;4.30;;;9.50;94.10;;;;;;4972905;28;20393;-68
2022/04/30 03:00:45;;;;;;;10.17;4.53;;;9.50;94.10;;;;;;4955257;28;19919;-70
2022/04/30 03:03:23;;;;;;;10.43;4.53;;;9.50;94.20;;;;;;4972869;28;20030;-70
2022/04/30 03:05:52;;;;;;;9.30;4.70;;;9.50;94.10;;;;;;4972565;28;20122;-69
2022/04/30 03:08:24;;;;;;;9.20;4.50;;;9.50;94.20;;;;;;4955049;28;20509;-70
2022/04/30 03:10:55;;;;;;;9.23;4.93;;;9.50;94.20;;;;;;4972403;28;20031;-69
2022/04/30 03:13:23;;;;;;;9.03;5.07;;;9.40;94.20;;;;;;4972684;28;20189;-69
2022/04/30 03:15:51;;;;;;;10.40;5.00;;;9.30;94.50;;;;;;4972488;28;20048;-70
2022/04/30 03:23:31;;;;;;;10.00;5.27;;;9.30;94.70;;;;;;4971426;28;20031;-68
2022/04/30 03:25:57;;;;;;;9.73;4.73;;;9.40;94.70;;;;;;4972351;28;20619;-69
2022/04/30 03:28:23;;;;;;;9.13;5.30;;;9.40;94.60;;;;;;4971960;28;20110;-69
2022/04/30 03:30:49;;;;;;;12.30;5.40;;;9.40;94.60;;;;;;4972190;28;20039;-69
2022/04/30 03:33:15;;;;;;;11.40;5.17;;;9.30;94.70;;;;;;4972130;28;20062;-69
2022/04/30 03:35:42;;;;;;;12.37;6.07;;;9.30;94.90;;;;;;4972051;28;20610;-69
2022/04/30 03:38:09;;;;;;;9.93;5.10;;;9.20;94.90;;;;;;4971808;28;20062;-68
2022/04/30 03:40:38;;;;;;;9.10;4.97;;;9.20;94.90;;;;;;4972141;28;20066;-69
2022/04/30 03:43:06;;;;;;;12.13;5.70;;;9.20;95.00;;;;;;4972031;28;20502;-69
2022/04/30 03:45:32;;;;;;;9.47;5.53;;;9.20;94.90;;;;;;4972173;28;20031;-69
2022/04/30 03:47:58;;;;;;;10.13;5.27;;;9.20;95.10;;;;;;4971803;28;20506;-69
2022/04/30 03:50:24;;;;;;;11.17;5.53;;;9.10;95.00;;;;;;4954873;28;20436;-69
2022/04/30 03:52:49;;;;;;;9.80;5.50;;;9.10;95.10;;;;;;4971942;28;20158;-68
2022/04/30 03:55:15;;;;;;;12.60;5.40;;;9.10;95.20;;;;;;4954807;28;20035;-69
2022/04/30 03:57:41;;;;;;;8.60;5.50;;;9.00;95.40;;;;;;4971829;28;20101;-69
2022/04/30 04:00:09;;;;;;;8.57;5.17;;;9.00;95.40;;;;;;4971974;28;20503;-69
2022/04/30 04:02:40;;;;;;;10.63;5.53;;;9.00;95.40;;;;;;4971800;28;20070;-69
2022/04/30 04:05:12;;;;;;;10.70;5.80;;;9.00;95.60;;;;;;4971960;28;20034;-69
2022/04/30 04:07:41;;;;;;;10.23;5.40;;;9.00;95.60;;;;;;4971728;28;20031;-69
2022/04/30 04:10:12;;;;;;;11.00;5.97;;;9.00;95.60;;;;;;4972124;28;20484;-69
2022/04/30 04:12:39;;;;;;;9.10;5.37;;;9.00;95.70;;;;;;4971899;28;20167;-69
2022/04/30 04:17:51;;;;;;;11.20;5.00;;;9.00;95.70;;;;;;4971561;28;20508;-69
2022/04/30 04:20:24;;;;;;;10.53;5.63;;;9.00;95.60;;;;;;4971857;28;20029;-68
2022/04/30 04:22:54;;;;;;;11.67;5.43;;;8.90;95.80;;;;;;4954263;28;20423;-70
2022/04/30 04:28:05;;;;;;;9.80;5.03;;;9.00;95.90;;;;;;4971507;28;20496;-70
2022/04/30 04:30:32;;;;;;;8.97;4.80;;;9.00;95.80;;;;;;4972256;28;20280;-69
2022/04/30 04:32:59;;;;;;;10.17;5.33;;;9.00;95.80;;;;;;4971624;28;20455;-70
2022/04/30 04:35:25;;;;;;;10.57;5.60;;;9.00;95.70;;;;;;4973004;28;20047;-69
2022/04/30 04:37:51;;;;;;;12.00;5.27;;;9.00;95.80;;;;;;4974895;28;20031;-69
2022/04/30 04:40:18;;;;;;;10.13;5.70;;;9.00;95.80;;;;;;4975189;28;20069;-69
2022/04/30 04:42:45;;;;;;;12.13;6.10;;;9.00;95.90;;;;;;4957811;28;20086;-69
2022/04/30 04:45:12;;;;;;;9.57;5.53;;;9.00;95.90;;;;;;4975089;28;20058;-69
2022/04/30 04:47:41;;;;;;;9.67;5.00;;;9.00;95.80;;;;;;4974857;28;20125;-70
2022/04/30 04:50:12;;;;;;;9.38;5.03;;;9.00;95.90;;;;;;4975059;28;20484;-68
2022/04/30 04:52:43;;;;;;;11.30;5.80;;;9.00;95.80;;;;;;4974816;28;20110;-68
2022/04/30 04:55:10;;;;;;;21.77;8.03;;;9.00;95.80;;;;;;4974989;28;20051;-68
2022/04/30 04:57:37;;;;;;;12.53;6.60;;;9.00;96.10;;;;;;4974645;28;20377;-68
2022/04/30 05:00:04;;;;;;;10.30;5.63;;;9.00;96.10;;;;;;4974884;28;20114;-69
2022/04/30 05:02:30;;;;;;;9.57;5.20;;;9.00;95.90;;;;;;4974605;28;20031;-68
2022/04/30 05:04:56;;;;;;;11.77;5.43;;;9.00;96.00;;;;;;4974750;28;20031;-68
2022/04/30 05:07:22;;;;;;;12.30;5.50;;;8.90;96.10;;;;;;4974355;28;20488;-68
2022/04/30 05:09:48;;;;;;;9.23;5.07;;;9.00;96.20;;;;;;4974668;28;20137;-68
2022/04/30 05:12:14;;;;;;;11.27;5.77;;;9.00;96.10;;;;;;4974643;28;20547;-68
2022/04/30 05:14:40;;;;;;;12.83;5.73;;;9.00;96.10;;;;;;4974571;28;20038;-68
2022/04/30 05:17:09;;;;;;;13.90;5.70;;;9.00;96.20;;;;;;4957093;28;20031;-68
2022/04/30 05:19:36;;;;;;;13.60;6.40;;;8.90;96.30;;;;;;4974301;28;20105;-68
2022/04/30 05:22:02;;;;;;;12.97;5.80;;;8.90;96.40;;;;;;4974441;28;20027;-68
2022/04/30 05:24:29;;;;;;;13.63;5.70;;;8.80;96.50;;;;;;4974448;28;20033;-68
2022/04/30 05:26:55;;;;;;;11.73;5.87;;;8.80;96.70;;;;;;4974324;28;20496;-68
2022/04/30 05:29:21;;;;;;;11.70;6.37;;;8.70;96.90;;;;;;4974652;28;20058;-68
2022/04/30 05:31:46;;;;;;;13.47;6.37;;;8.70;96.90;;;;;;4974370;28;20027;-68
2022/04/30 05:34:12;;;;;;;10.07;5.93;;;8.70;97.20;;;;;;4974168;28;20027;-68
2022/04/30 05:36:38;;;;;;;15.93;6.60;;;8.70;97.20;;;;;;4974125;28;20030;-68
2022/04/30 05:39:05;;;;;;;9.30;5.40;;;8.80;97.20;;;;;;4974325;28;20035;-68
2022/04/30 05:41:31;;;;;;;10.77;5.90;;;8.90;97.20;;;;;;4956771;28;20102;-68
2022/04/30 05:43:57;;;;;;;10.63;6.27;;;8.90;97.30;;;;;;4974099;28;20105;-68
2022/04/30 05:46:23;;;;;;;11.30;6.13;;;9.00;97.40;;;;;;4973115;28;20035;-69
2022/04/30 05:48:49;;;;;;;13.07;6.80;;;9.00;97.40;;;;;;4973806;28;20030;-69
2022/04/30 05:51:15;;;;;;;12.90;7.00;;;9.10;97.30;;;;;;4974105;28;20380;-68
2022/04/30 05:53:41;;;;;;;12.53;6.60;;;9.20;97.40;;;;;;4956478;28;20034;-68
2022/04/30 05:56:08;;;;;;;14.17;7.07;;;9.20;97.30;;;;;;4973795;28;20588;-69
2022/04/30 05:58:34;;;;;;;13.37;6.70;;;9.20;97.30;;;;;;4973667;28;20033;-69
2022/04/30 06:01:01;;;;;;;10.80;7.00;;;9.30;97.20;;;;;;4973798;28;20034;-69
2022/04/30 06:03:30;;;;;;;13.53;7.23;;;9.30;97.30;;;;;;4973569;28;20027;-69
2022/04/30 06:05:56;;;;;;;14.93;7.03;;;9.30;97.30;;;;;;4973545;28;20037;-69
2022/04/30 06:08:21;;;;;;;12.40;6.97;;;9.40;97.40;;;;;;4973260;28;20030;-70
2022/04/30 06:10:47;;;;;;;11.50;7.00;;;9.40;97.40;;;;;;4973553;28;20035;-69
2022/04/30 06:13:13;;;;;;;19.17;7.70;;;9.40;97.40;;;;;;4973431;28;20097;-69
2022/04/30 06:15:39;;;;;;;12.80;6.83;;;9.50;97.50;;;;;;4973475;28;20126;-69
2022/04/30 06:18:05;;;;;;;16.47;7.23;;;9.40;97.40;;;;;;4973073;28;20026;-69
2022/04/30 06:20:31;;;;;;;12.50;6.87;;;9.40;97.70;;;;;;4973458;28;20488;-69
2022/04/30 06:22:58;;;;;;;14.40;6.80;;;9.50;97.70;;;;;;4973410;28;20107;-69
2022/04/30 06:25:24;;;;;;;11.80;6.93;;;9.50;97.70;;;;;;4973334;28;20106;-69
2022/04/30 06:27:50;;;;;;;19.07;7.43;;;9.60;97.80;;;;;;4955646;28;20154;-69
2022/04/30 06:30:15;;;;;;;13.60;6.60;;;9.60;97.80;;;;;;4973083;28;20034;-69
2022/04/30 06:32:41;;;;;;;15.47;7.30;;;9.60;97.70;;;;;;4972830;28;20026;-69
2022/04/30 06:35:08;;;;;;;12.77;6.70;;;9.70;97.80;;;;;;4972958;28;20042;-68
2022/04/30 06:37:34;;;;;;;13.60;7.37;;;9.70;98.00;;;;;;4973004;28;20469;-68
2022/04/30 06:40:00;;;;;;;17.83;6.70;;;9.70;98.00;;;;;;4972921;28;20031;-69
2022/04/30 06:42:26;;;;;;;13.57;7.43;;;9.80;98.00;;;;;;4972874;28;20031;-70
2022/04/30 06:44:52;;;;;;;17.13;7.20;;;9.80;97.80;;;;;;4972887;28;20118;-69
2022/04/30 06:47:20;;;;;;;12.37;7.10;;;9.90;97.60;;;;;;4972635;28;20113;-69
2022/04/30 06:49:46;;;;;;;11.97;7.50;;;10.00;97.50;;;;;;4972819;28;20027;-68
2022/04/30 06:52:12;;;;;;;13.80;7.23;;;10.00;97.30;;;;;;4972729;28;20418;-68
2022/04/30 06:57:22;;;;;;;13.07;7.23;;;10.10;97.30;;;;;;4972699;28;20473;-69
2022/04/30 06:59:52;;;;;;;13.73;7.83;;;10.00;97.40;;;;;;4972509;28;20094;-68
2022/04/30 07:02:22;;;;;;;14.02;7.85;;;10.00;97.50;;;;;;4972606;28;20065;-70
2022/04/30 07:04:50;;;;;;;14.70;7.90;;;9.90;97.10;;;;;;4972637;28;20035;-70
2022/04/30 07:07:20;;;;;;;15.77;8.57;;;10.00;97.50;;;;;;4972277;28;20027;-69
2022/04/30 07:09:46;;;;;;;19.80;9.00;;;10.00;97.40;;;;;;4972486;28;20039;-70
2022/04/30 07:12:14;;;;;;;14.37;9.13;;;10.10;97.40;;;;;;4972414;28;20314;-70
2022/04/30 07:14:42;;;;;;;16.70;8.57;;;10.20;97.30;;;;;;4972430;28;20050;-69
2022/04/30 07:17:10;;;;;;;17.90;8.90;;;10.20;97.20;;;;;;4972251;28;20094;-70
2022/04/30 07:19:36;;;;;;;14.07;9.20;;;10.30;96.90;;;;;;4972264;28;20022;-69
2022/04/30 07:22:03;;;;;;;17.47;8.83;;;10.20;96.70;;;;;;4972297;28;20483;-69
2022/04/30 07:24:33;;;;;;;13.87;8.13;;;10.20;96.60;;;;;;4955166;28;20074;-70
2022/04/30 07:27:00;;;;;;;18.80;9.87;;;10.20;96.70;;;;;;4972105;28;20397;-70
2022/04/30 07:29:26;;;;;;;16.30;9.07;;;10.30;96.90;;;;;;4972286;28;20109;-69
2022/04/30 07:31:52;;;;;;;17.10;8.97;;;10.30;96.70;;;;;;4954974;28;20039;-69
2022/04/30 07:34:18;;;;;;;12.87;8.53;;;10.30;96.40;;;;;;4972145;28;20058;-69
2022/04/30 07:36:44;;;;;;;20.60;9.10;;;10.30;96.00;;;;;;4972231;28;20499;-70
2022/04/30 07:39:11;;;;;;;11.80;6.93;;;10.40;96.10;;;;;;4972018;28;20027;-69
2022/04/30 07:41:37;;;;;;;11.13;6.80;;;10.50;95.20;;;;;;4972111;28;20392;-69
2022/04/30 07:44:03;;;;;;;12.93;6.97;;;10.50;95.10;;;;;;4954817;28;20035;-69
2022/04/30 07:46:29;;;;;;;11.53;7.13;;;10.50;95.30;;;;;;4972107;28;20114;-69
2022/04/30 07:48:55;;;;;;;12.63;6.50;;;10.60;94.70;;;;;;4954848;28;20121;-69
2022/04/30 07:51:34;;;;;;;14.47;7.27;;;10.60;94.40;;;;;;4972146;28;20106;-69
2022/04/30 07:54:04;;;;;;;13.23;6.78;;;10.60;94.60;;;;;;4972183;28;20031;-69
2022/04/30 07:56:31;;;;;;;13.70;6.37;;;10.60;94.60;;;;;;4972098;28;20036;-69
2022/04/30 07:58:57;;;;;;;16.90;6.07;;;10.70;94.70;;;;;;4972172;28;20034;-68
2022/04/30 08:01:23;;;;;;;10.77;6.37;;;10.80;94.50;;;;;;4971956;28;20461;-69
2022/04/30 08:03:49;;;;;;;12.77;5.50;;;10.80;94.20;;;;;;4954699;28;20487;-69
2022/04/30 08:06:15;;;;;;;10.23;5.20;;;10.60;94.00;;;;;;4971738;28;20435;-69
2022/04/30 08:08:42;;;;;;;11.20;4.87;;;10.60;93.90;;;;;;4938468;28;20030;-69
2022/04/30 08:11:08;;;;;;;12.63;5.77;;;10.60;93.70;;;;;;4974582;28;20027;-69
2022/04/30 08:13:35;;;;;;;10.37;5.27;;;10.60;93.40;;;;;;4975650;28;20122;-68
2022/04/30 08:16:02;;;;;;;13.60;5.40;;;10.60;93.80;;;;;;4975635;28;20118;-69
2022/04/30 08:18:28;;;;;;;8.57;4.70;;;10.60;93.70;;;;;;4975629;28;20105;-69
2022/04/30 08:20:54;;;;;;;10.33;4.57;;;10.70;93.50;;;;;;4975673;28;20102;-69
2022/04/30 08:23:22;;;;;;;9.87;3.90;;;10.60;92.00;;;;;;4975461;28;20030;-69
2022/04/30 08:25:48;;;;;;;9.30;4.00;;;10.60;91.70;;;;;;4975492;28;20385;-69
2022/04/30 08:28:14;;;;;;;7.17;3.93;;;10.60;91.50;;;;;;4975176;28;20115;-69
2022/04/30 08:30:41;;;;;;;8.23;4.53;;;10.70;91.30;;;;;;4975518;28;20039;-68
2022/04/30 08:33:07;;;;;;;11.90;4.67;;;10.70;91.60;;;;;;4975610;28;20035;-68
2022/04/30 08:35:33;;;;;;;8.77;4.47;;;10.60;91.70;;;;;;4975389;28;20388;-69
2022/04/30 08:37:59;;;;;;;7.03;4.10;;;10.60;91.50;;;;;;4975094;28;20077;-69
2022/04/30 08:40:25;;;;;;;8.50;4.43;;;10.70;91.70;;;;;;4975647;28;20166;-70
2022/04/30 08:42:51;;;;;;;11.70;4.30;;;10.70;91.70;;;;;;4975318;28;20035;-69
2022/04/30 08:45:21;;;;;;;8.83;4.17;;;10.70;91.50;;;;;;4975284;28;20030;-68
2022/04/30 08:47:50;;;;;;;7.57;3.87;;;10.90;91.60;;;;;;4974993;28;20053;-69
2022/04/30 08:50:16;;;;;;;6.32;3.00;;;11.00;90.80;;;;;;4975093;28;20062;-69
2022/04/30 08:52:42;;;;;;;7.10;3.83;;;11.10;89.20;;;;;;4974979;28;20058;-67
2022/04/30 08:55:09;;;;;;;6.77;3.70;;;11.20;88.60;;;;;;4957667;28;20027;-69
2022/04/30 08:57:35;;;;;;;10.87;5.03;;;11.20;87.50;;;;;;4974848;28;20430;-70
2022/04/30 09:00:04;;;;;;;6.07;3.10;;;11.30;87.20;;;;;;4975002;28;20029;-70
2022/04/30 09:02:30;;;;;;;7.90;3.47;;;11.40;86.80;;;;;;4974799;28;20030;-69
2022/04/30 09:04:56;;;;;;;8.10;3.87;;;11.40;87.20;;;;;;4974886;28;20093;-69
2022/04/30 09:07:24;;;;;;;6.93;3.80;;;11.50;87.90;;;;;;4974550;28;20484;-69
2022/04/30 09:10:03;;;;;;;6.53;3.77;;;11.60;88.40;;;;;;4974874;28;20030;-69
2022/04/30 09:12:31;;;;;;;9.82;4.00;;;11.60;88.80;;;;;;4974943;28;20041;-69
2022/04/30 09:14:59;;;;;;;8.83;3.83;;;11.70;88.50;;;;;;4974663;28;20588;-68
2022/04/30 09:17:28;;;;;;;5.63;3.20;;;11.60;85.50;;;;;;4974442;28;20030;-69
2022/04/30 09:19:56;;;;;;;8.02;4.15;;;11.70;85.60;;;;;;4974554;28;20027;-69
2022/04/30 09:22:38;;;;;;;6.47;3.30;;;11.80;86.20;;;;;;4957189;28;20027;-70
2022/04/30 09:25:12;;;;;;;6.47;3.37;;;11.90;85.80;;;;;;4974589;28;20031;-69
2022/04/30 09:27:56;;;;;;;10.37;4.33;;;11.90;86.40;;;;;;4974418;28;20041;-70
2022/04/30 09:30:32;;;;;;;8.67;4.23;;;12.00;87.00;;;;;;4974521;28;20035;-69
2022/04/30 09:33:04;;;;;;;6.63;4.47;;;12.10;86.40;;;;;;4974400;28;20031;-68
2022/04/30 09:38:17;;;;;;;9.80;4.70;;;12.10;86.80;;;;;;4974426;28;20027;-69
2022/04/30 09:40:57;;;;;;;6.33;4.33;;;12.10;87.00;;;;;;4974572;28;20022;-69
2022/04/30 09:43:34;;;;;;;8.87;4.20;;;12.00;86.90;;;;;;4974305;28;20105;-69
2022/04/30 09:46:01;;;;;;;12.30;5.03;;;12.00;86.30;;;;;;4974238;28;20035;-70
2022/04/30 09:54:02;;;;;;;6.90;3.27;;;12.00;85.90;;;;;;4974058;28;20038;-70
2022/04/30 09:56:41;;;;;;;5.83;3.30;;;12.10;86.20;;;;;;4956459;28;20480;-69
2022/04/30 09:59:12;;;;;;;8.50;4.35;;;12.10;85.80;;;;;;4956671;28;20027;-68
2022/04/30 10:01:44;;;;;;;6.53;3.40;;;12.20;84.80;;;;;;4956616;28;20078;-67
2022/04/30 10:04:12;;;;;;;7.97;3.40;;;12.20;85.00;;;;;;4973756;28;20360;-68
2022/04/30 10:07:05;;;;;;;6.03;3.30;;;12.20;84.80;;;;;;4956304;28;20058;-68
2022/04/30 10:09:39;;;;;;;6.70;3.20;;;12.30;83.80;;;;;;4969758;28;20050;-68
2022/04/30 10:12:31;;;;;;;6.80;2.83;;;12.30;83.70;;;;;;4956376;28;20039;-67
2022/04/30 10:14:57;;;;;;;5.43;3.30;;;12.40;83.60;;;;;;4973475;28;20038;-67
2022/04/30 10:17:25;;;;;;;6.20;3.23;;;12.60;83.20;;;;;;4973450;28;20405;-70
2022/04/30 10:20:08;;;;;;;6.10;3.50;;;12.60;83.30;;;;;;4973474;28;20034;-67
2022/04/30 10:22:35;;;;;;;5.97;3.30;;;12.70;83.50;;;;;;4973435;28;20081;-68
2022/04/30 10:25:02;;;;;;;7.37;3.27;;;12.70;83.30;;;;;;4973353;28;20057;-68
2022/04/30 10:27:43;;;;;;;5.67;3.00;;;12.70;82.90;;;;;;4955862;28;20036;-68
2022/04/30 10:30:27;;;;;;;5.20;2.93;;;12.70;81.10;;;;;;4973334;28;20039;-67
2022/04/30 10:33:01;;;;;;;4.80;2.70;;;12.80;80.70;;;;;;4955480;28;20089;-67
2022/04/30 10:35:37;;;;;;;5.23;2.50;;;12.80;80.30;;;;;;4973065;28;20038;-67
2022/04/30 10:38:19;;;;;;;5.93;2.87;;;12.90;80.90;;;;;;4955631;28;20031;-68
2022/04/30 10:40:56;;;;;;;5.97;3.17;;;13.00;79.40;;;;;;4973191;28;20034;-67
2022/04/30 10:43:42;;;;;;;7.03;3.20;;;13.10;80.00;;;;;;4973003;28;20031;-67
2022/04/30 10:46:21;;;;;;;5.63;3.27;;;13.10;79.30;;;;;;4972921;28;20031;-67
2022/04/30 10:48:48;;;;;;;7.85;3.92;;;13.00;79.50;;;;;;4972888;28;20042;-68
2022/04/30 10:51:15;;;;;;;6.80;2.97;;;13.00;79.90;;;;;;4972925;28;20042;-68
2022/04/30 10:53:46;;;;;;;6.50;2.97;;;12.90;80.50;;;;;;4972916;28;20208;-68
2022/04/30 10:56:15;;;;;;;6.73;3.00;;;12.90;80.30;;;;;;4972755;28;20034;-68
2022/04/30 10:58:41;;;;;;;11.65;3.10;;;13.00;80.20;;;;;;4972854;28;20523;-67
2022/04/30 11:01:18;;;;;;;6.20;2.90;;;12.90;79.40;;;;;;4972892;28;20031;-68
2022/04/30 11:03:49;;;;;;;6.33;3.10;;;12.90;79.20;;;;;;4972719;28;20038;-68
2022/04/30 11:06:21;;;;;;;6.40;3.00;;;12.80;79.30;;;;;;4972618;28;20026;-67
2022/04/30 11:08:58;;;;;;;5.20;2.53;;;12.80;80.00;;;;;;4972487;28;20062;-67
2022/04/30 11:11:24;;;;;;;5.97;3.37;;;12.70;80.10;;;;;;4972545;28;20056;-68
2022/04/30 11:14:02;;;;;;;6.73;3.50;;;12.80;79.20;;;;;;4972677;28;20031;-68
2022/04/30 11:16:36;;;;;;;6.13;3.00;;;12.90;80.60;;;;;;4972396;28;20495;-71
2022/04/30 11:19:09;;;;;;;7.80;3.30;;;12.90;79.90;;;;;;4972526;28;20031;-67
2022/04/30 11:21:37;;;;;;;8.00;3.77;;;12.90;79.10;;;;;;4972536;28;20106;-68
2022/04/30 11:24:04;;;;;;;5.10;2.73;;;12.80;79.20;;;;;;4972921;28;20027;-69
2022/04/30 11:26:35;;;;;;;5.77;3.17;;;12.80;79.20;;;;;;4972174;28;20086;-67
2022/04/30 11:29:01;;;;;;;4.80;2.93;;;12.90;79.00;;;;;;4972324;28;20031;-68
2022/04/30 11:31:27;;;;;;;6.33;2.90;;;12.90;78.10;;;;;;4972284;28;20404;-68
2022/04/30 11:33:53;;;;;;;7.17;3.10;;;12.90;78.10;;;;;;4972332;28;20039;-67
2022/04/30 11:36:19;;;;;;;5.60;2.90;;;12.90;78.50;;;;;;4972227;28;20235;-67
2022/04/30 11:38:53;;;;;;;6.27;3.37;;;12.90;77.80;;;;;;4972003;28;20031;-69
2022/04/30 11:41:19;;;;;;;4.57;2.60;;;12.90;77.60;;;;;;4972520;28;20383;-68
2022/04/30 11:43:45;;;;;;;5.60;2.87;;;12.90;78.10;;;;;;4954566;28;20042;-67
2022/04/30 11:46:11;;;;;;;5.37;2.70;;;13.00;78.60;;;;;;4971320;28;20039;-68
2022/04/30 11:48:39;;;;;;;6.33;3.03;;;13.00;78.10;;;;;;4971776;28;20027;-68
2022/04/30 11:51:07;;;;;;;5.03;2.75;;;13.00;77.80;;;;;;4972021;28;20034;-67
2022/04/30 11:53:35;;;;;;;5.27;2.60;;;13.10;77.00;;;;;;4971750;28;20049;-68
2022/04/30 11:56:01;;;;;;;6.18;2.70;;;13.10;76.70;;;;;;4972086;28;20427;-69
2022/04/30 11:58:42;;;;;;;5.70;3.23;;;13.20;76.50;;;;;;4971787;28;20045;-68
2022/04/30 12:01:25;;;;;;;5.53;2.57;;;13.20;76.20;;;;;;4972024;28;20392;-68
2022/04/30 12:03:59;;;;;;;5.10;2.80;;;13.30;76.70;;;;;;4971822;28;20058;-68
2022/04/30 12:06:27;;;;;;;4.67;2.77;;;13.30;76.60;;;;;;4971721;28;20042;-68
2022/04/30 12:08:53;;;;;;;5.50;2.97;;;13.40;76.40;;;;;;4971802;28;20118;-68
2022/04/30 12:11:19;;;;;;;4.03;2.42;;;13.50;76.50;;;;;;4971937;28;20500;-68
2022/04/30 12:13:58;;;;;;;4.28;2.38;;;13.50;76.50;;;;;;4971890;28;20122;-68
2022/04/30 12:16:24;;;;;;;;;;;13.40;73.70;;;;;;4972110;28;20073;-68
2022/04/30 12:24:43;;;;;;;6.18;2.60;;;13.50;74.70;;;;;;4971917;28;20031;-68
2022/04/30 12:27:18;;;;;;;3.47;1.92;;;13.60;75.00;;;;;;4971523;28;20034;-68
2022/04/30 12:29:44;;;;;;;4.17;2.20;;;13.60;73.20;;;;;;4971782;28;20434;-68
2022/04/30 12:32:10;;;;;;;3.38;1.80;;;13.60;72.90;;;;;;4971707;28;20121;-68
2022/04/30 12:34:38;;;;;;;4.15;1.95;;;13.60;71.60;;;;;;4971720;28;20030;-68
2022/04/30 12:37:05;;;;;;;2.95;1.60;;;13.60;72.10;;;;;;4971557;28;20030;-68
2022/04/30 12:39:31;;;;;;;3.80;1.60;;;13.60;71.70;;;;;;4971588;28;20038;-68
2022/04/30 12:41:59;;;;;;;4.03;1.90;;;13.70;70.90;;;;;;4971592;28;20034;-67
2022/04/30 12:44:27;;;;;;;3.42;1.98;;;13.70;70.40;;;;;;4971857;28;20097;-68
2022/04/30 12:46:53;;;;;;;3.90;1.98;;;13.80;71.50;;;;;;4954052;28;20039;-68
2022/04/30 12:49:19;;;;;;;7.25;3.00;;;13.90;70.80;;;;;;4971536;28;20042;-68
2022/04/30 12:51:48;;;;;;;8.15;3.33;;;13.90;70.60;;;;;;4971398;28;20110;-69
2022/04/30 12:54:16;;;;;;;4.40;2.28;;;13.90;69.80;;;;;;4971672;28;20027;-69
2022/04/30 12:56:43;;;;;;;4.53;1.98;;;14.00;70.20;;;;;;4972960;28;20483;-68
2022/04/30 12:59:10;;;;;;;4.95;2.35;;;14.00;69.30;;;;;;4974912;28;20050;-70
2022/04/30 13:01:40;;;;;;;3.85;2.10;;;14.10;69.60;;;;;;4974988;28;20038;-68
2022/04/30 13:04:08;;;;;;;;;;;14.10;69.80;;;;;;4975450;28;20026;-68
2022/04/30 13:06:39;;;;;;;4.78;2.22;;;14.20;70.20;;;;;;4974594;28;19972;-68
2022/04/30 13:14:41;;;;;;;2.78;1.88;;;14.20;70.10;;;;;;4974546;28;20031;-68
2022/04/30 13:17:07;;;;;;;5.22;2.35;;;14.20;70.30;;;;;;4974687;28;20027;-68
2022/04/30 13:19:33;;;;;;;4.78;2.60;;;14.20;70.40;;;;;;4974564;28;20543;-68
2022/04/30 13:21:59;;;;;;;6.78;3.15;;;14.10;70.50;;;;;;4974559;28;20488;-68
2022/04/30 13:24:26;;;;;;;5.82;3.08;;;14.10;70.10;;;;;;4974724;28;20085;-69
2022/04/30 13:26:52;;;;;;;5.90;3.55;;;14.00;70.90;;;;;;4974302;28;20468;-68
2022/04/30 13:29:18;;;;;;;6.97;3.08;;;14.10;70.40;;;;;;4974483;28;20062;-68
2022/04/30 13:31:44;;;;;;;5.63;3.38;;;14.00;70.60;;;;;;4974523;28;20440;-68
2022/04/30 13:34:11;;;;;;;6.50;3.53;;;14.00;70.60;;;;;;4974437;28;20031;-68
2022/04/30 13:36:39;;;;;;;4.63;2.53;;;14.00;70.40;;;;;;4974136;28;20543;-68